createdAt,value
2018-09-30T00:00:46.342Z,8.40
2018-09-30T00:03:14.659Z,8.40
2018-09-30T00:05:42.971Z,8.40
2018-09-30T00:08:11.373Z,8.30
2018-09-30T00:10:39.745Z,8.30
2018-09-30T00:13:08.181Z,8.30
2018-09-30T00:15:36.509Z,8.20
2018-09-30T00:18:04.881Z,8.20
2018-09-30T00:20:33.207Z,8.20
2018-09-30T00:23:01.569Z,8.20
2018-09-30T00:25:35.317Z,8.20
2018-09-30T00:28:03.664Z,8.10
2018-09-30T00:30:32.016Z,8.00
2018-09-30T00:33:00.425Z,8.00
2018-09-30T00:35:28.772Z,7.90
2018-09-30T00:37:57.091Z,8.00
2018-09-30T00:40:25.458Z,7.90
2018-09-30T00:42:53.817Z,7.80
2018-09-30T00:45:22.144Z,7.80
2018-09-30T00:47:50.484Z,7.80
2018-09-30T00:50:18.874Z,7.70
2018-09-30T00:52:47.192Z,7.70
2018-09-30T00:55:15.545Z,7.70
2018-09-30T00:57:43.920Z,7.80
2018-09-30T01:00:12.287Z,7.80
2018-09-30T01:02:40.663Z,7.90
2018-09-30T01:05:09.120Z,7.90
2018-09-30T01:07:37.480Z,7.80
2018-09-30T01:10:06.018Z,7.80
2018-09-30T01:12:34.364Z,7.80
2018-09-30T01:15:02.708Z,7.80
2018-09-30T01:17:31.073Z,7.80
2018-09-30T01:19:59.413Z,7.80
2018-09-30T01:22:27.764Z,7.80
2018-09-30T01:24:56.084Z,7.80
2018-09-30T01:27:24.429Z,7.70
2018-09-30T01:29:52.749Z,7.70
2018-09-30T01:32:21.105Z,7.70
2018-09-30T01:34:49.411Z,7.60
2018-09-30T01:37:17.760Z,7.60
2018-09-30T01:39:46.133Z,7.60
2018-09-30T01:42:14.478Z,7.60
2018-09-30T01:44:42.811Z,7.60
2018-09-30T01:47:11.147Z,7.50
2018-09-30T01:49:39.468Z,7.50
2018-09-30T01:52:19.224Z,7.60
2018-09-30T01:54:47.586Z,7.50
2018-09-30T01:57:15.908Z,7.60
2018-09-30T01:59:44.256Z,7.60
2018-09-30T02:02:12.578Z,7.60
2018-09-30T02:04:40.932Z,7.70
2018-09-30T02:07:09.262Z,7.70
2018-09-30T02:09:37.606Z,7.70
2018-09-30T02:12:06.025Z,7.70
2018-09-30T02:14:34.341Z,7.70
2018-09-30T02:17:02.836Z,7.70
2018-09-30T02:19:31.299Z,7.60
2018-09-30T02:21:59.625Z,7.60
2018-09-30T02:24:27.940Z,7.50
2018-09-30T02:26:56.333Z,7.40
2018-09-30T02:29:24.700Z,7.40
2018-09-30T02:31:53.031Z,7.40
2018-09-30T02:34:21.386Z,7.40
2018-09-30T02:36:49.718Z,7.30
2018-09-30T02:39:18.034Z,7.30
2018-09-30T02:41:46.402Z,7.30
2018-09-30T02:44:14.717Z,7.20
2018-09-30T02:46:43.069Z,7.20
2018-09-30T02:49:11.377Z,7.20
2018-09-30T02:51:39.723Z,7.20
2018-09-30T02:54:08.035Z,7.20
2018-09-30T02:56:36.401Z,7.20
2018-09-30T02:59:04.773Z,7.10
2018-09-30T03:01:33.080Z,7.20
2018-09-30T03:04:01.444Z,6.90
2018-09-30T03:06:35.302Z,6.90
2018-09-30T03:09:09.123Z,7.00
2018-09-30T03:11:37.460Z,6.90
2018-09-30T03:14:05.812Z,7.00
2018-09-30T03:16:34.196Z,6.90
2018-09-30T03:19:02.653Z,6.90
2018-09-30T03:21:30.969Z,6.90
2018-09-30T03:23:59.327Z,6.90
2018-09-30T03:26:27.633Z,6.90
2018-09-30T03:28:56.000Z,6.90
2018-09-30T03:31:24.324Z,6.80
2018-09-30T03:33:52.752Z,6.80
2018-09-30T03:36:21.051Z,6.80
2018-09-30T03:38:49.356Z,6.80
2018-09-30T03:41:17.755Z,6.70
2018-09-30T03:43:46.135Z,6.70
2018-09-30T03:46:14.514Z,6.60
2018-09-30T03:48:42.839Z,6.50
2018-09-30T03:51:11.184Z,6.60
2018-09-30T03:53:39.505Z,6.50
2018-09-30T03:56:07.848Z,6.50
2018-09-30T03:58:36.157Z,6.50
2018-09-30T04:01:04.512Z,6.50
2018-09-30T04:03:32.812Z,6.50
2018-09-30T04:06:01.241Z,6.50
2018-09-30T04:08:29.574Z,6.50
2018-09-30T04:10:57.892Z,6.40
2018-09-30T04:13:26.260Z,6.40
2018-09-30T04:15:54.568Z,6.30
2018-09-30T04:18:22.949Z,6.40
2018-09-30T04:20:51.444Z,6.30
2018-09-30T04:23:19.796Z,6.30
2018-09-30T04:25:48.139Z,6.20
2018-09-30T04:28:16.459Z,6.20
2018-09-30T04:30:44.769Z,6.10
2018-09-30T04:33:13.187Z,5.90
2018-09-30T04:35:41.480Z,5.90
2018-09-30T04:38:09.808Z,5.90
2018-09-30T04:40:38.140Z,5.90
2018-09-30T04:43:06.904Z,5.90
2018-09-30T04:45:35.227Z,5.90
2018-09-30T04:48:03.587Z,5.90
2018-09-30T04:50:31.899Z,5.90
2018-09-30T04:53:00.312Z,5.80
2018-09-30T04:55:28.675Z,5.90
2018-09-30T04:57:57.040Z,5.80
2018-09-30T05:00:25.389Z,5.80
2018-09-30T05:02:53.713Z,5.90
2018-09-30T05:05:22.049Z,5.80
2018-09-30T05:07:50.391Z,5.80
2018-09-30T05:10:18.725Z,5.80
2018-09-30T05:12:47.065Z,5.80
2018-09-30T05:15:16.372Z,5.70
2018-09-30T05:17:44.692Z,5.70
2018-09-30T05:20:13.043Z,5.70
2018-09-30T05:22:41.404Z,5.70
2018-09-30T05:25:09.761Z,5.60
2018-09-30T05:27:38.076Z,5.60
2018-09-30T05:30:06.520Z,5.60
2018-09-30T05:32:34.841Z,5.70
2018-09-30T05:35:03.185Z,5.60
2018-09-30T05:37:31.534Z,5.60
2018-09-30T05:39:59.895Z,5.60
2018-09-30T05:42:28.331Z,5.60
2018-09-30T05:44:56.666Z,5.60
2018-09-30T05:47:25.003Z,5.60
2018-09-30T05:49:53.418Z,5.50
2018-09-30T05:52:21.785Z,5.60
2018-09-30T05:54:50.149Z,5.60
2018-09-30T05:57:18.485Z,5.70
2018-09-30T05:59:46.830Z,5.70
2018-09-30T06:02:15.171Z,5.80
2018-09-30T06:04:43.535Z,5.80
2018-09-30T06:07:11.928Z,5.90
2018-09-30T06:09:40.268Z,5.90
2018-09-30T06:12:08.656Z,6.00
2018-09-30T06:14:37.025Z,6.00
2018-09-30T06:17:05.398Z,6.10
2018-09-30T06:19:33.783Z,6.10
2018-09-30T06:22:02.131Z,6.20
2018-09-30T06:24:30.480Z,6.20
2018-09-30T06:26:58.868Z,6.20
2018-09-30T06:29:27.213Z,6.20
2018-09-30T06:31:55.657Z,6.30
2018-09-30T06:34:24.360Z,6.30
2018-09-30T06:36:52.740Z,6.40
2018-09-30T06:39:21.077Z,6.40
2018-09-30T06:41:49.426Z,6.50
2018-09-30T06:44:17.808Z,6.60
2018-09-30T06:46:46.177Z,6.60
2018-09-30T06:49:14.609Z,6.70
2018-09-30T06:51:42.916Z,6.70
2018-09-30T06:54:11.236Z,6.80
2018-09-30T06:56:39.624Z,7.00
2018-09-30T06:59:08.141Z,6.90
2018-09-30T07:01:36.501Z,7.00
2018-09-30T07:04:04.968Z,7.10
2018-09-30T07:06:34.165Z,7.20
2018-09-30T07:09:02.598Z,7.30
2018-09-30T07:11:30.944Z,7.40
2018-09-30T07:13:59.291Z,7.40
2018-09-30T07:16:27.647Z,7.50
2018-09-30T07:18:56.006Z,7.50
2018-09-30T07:21:24.384Z,7.60
2018-09-30T07:23:52.715Z,7.70
2018-09-30T07:26:21.092Z,7.70
2018-09-30T07:28:49.544Z,7.70
2018-09-30T07:31:17.920Z,7.90
2018-09-30T07:33:46.338Z,7.90
2018-09-30T07:36:14.677Z,7.90
2018-09-30T07:38:42.999Z,8.00
2018-09-30T07:41:11.453Z,8.10
2018-09-30T07:43:39.821Z,8.30
2018-09-30T07:46:08.653Z,8.40
2018-09-30T07:48:37.041Z,8.40
2018-09-30T07:51:05.365Z,8.40
2018-09-30T07:53:33.728Z,8.50
2018-09-30T07:56:02.128Z,8.50
2018-09-30T07:58:30.456Z,8.60
2018-09-30T08:00:58.828Z,8.60
2018-09-30T08:03:27.147Z,8.70
2018-09-30T08:05:55.499Z,8.80
2018-09-30T08:08:23.828Z,8.90
2018-09-30T08:10:52.176Z,9.10
2018-09-30T08:13:20.585Z,9.30
2018-09-30T08:15:48.941Z,9.40
2018-09-30T08:18:17.524Z,9.40
2018-09-30T08:20:45.886Z,9.50
2018-09-30T08:23:14.270Z,9.60
2018-09-30T08:25:42.654Z,9.60
2018-09-30T08:28:11.135Z,9.60
2018-09-30T08:30:39.540Z,9.80
2018-09-30T08:33:07.983Z,9.80
2018-09-30T08:35:36.319Z,9.90
2018-09-30T08:38:10.185Z,10.00
2018-09-30T08:40:43.855Z,10.30
2018-09-30T08:43:12.232Z,10.30
2018-09-30T08:45:40.645Z,10.40
2018-09-30T08:48:08.973Z,10.40
2018-09-30T08:50:37.400Z,10.40
2018-09-30T08:53:05.893Z,10.40
2018-09-30T08:55:34.264Z,10.50
2018-09-30T08:58:02.698Z,10.60
2018-09-30T09:00:31.092Z,10.80
2018-09-30T09:02:59.510Z,11.10
2018-09-30T09:05:27.829Z,11.20
2018-09-30T09:07:56.168Z,11.50
2018-09-30T09:10:24.555Z,11.70
2018-09-30T09:12:53.027Z,11.80
2018-09-30T09:15:21.457Z,11.90
2018-09-30T09:17:49.917Z,11.90
2018-09-30T09:20:18.336Z,12.10
2018-09-30T09:22:47.018Z,12.10
2018-09-30T09:25:15.420Z,12.20
2018-09-30T09:27:43.897Z,12.40
2018-09-30T09:30:12.308Z,12.50
2018-09-30T09:32:40.713Z,12.70
2018-09-30T09:35:10.126Z,12.80
2018-09-30T09:37:39.073Z,12.70
2018-09-30T09:40:09.617Z,12.90
2018-09-30T09:42:38.044Z,13.10
2018-09-30T09:45:06.679Z,13.20
2018-09-30T09:47:35.080Z,13.40
2018-09-30T09:50:03.557Z,13.50
2018-09-30T09:52:31.953Z,13.80
2018-09-30T09:55:00.312Z,14.00
2018-09-30T09:57:28.676Z,14.30
2018-09-30T09:59:57.084Z,14.30
2018-09-30T10:02:25.537Z,14.20
2018-09-30T10:04:53.930Z,14.10
2018-09-30T10:07:22.324Z,14.30
2018-09-30T10:09:50.714Z,14.50
2018-09-30T10:12:19.259Z,14.60
2018-09-30T10:14:47.662Z,14.50
2018-09-30T10:17:16.020Z,14.60
2018-09-30T10:19:44.370Z,14.80
2018-09-30T10:22:12.728Z,14.90
2018-09-30T10:24:41.083Z,15.00
2018-09-30T10:27:09.471Z,14.70
2018-09-30T10:29:37.813Z,14.60
2018-09-30T10:32:06.204Z,14.90
2018-09-30T10:34:34.596Z,15.20
2018-09-30T10:37:02.981Z,15.50
2018-09-30T10:39:31.341Z,15.90
2018-09-30T10:41:59.732Z,15.90
2018-09-30T10:44:28.060Z,16.00
2018-09-30T10:46:56.416Z,16.30
2018-09-30T10:49:24.852Z,16.40
2018-09-30T10:51:53.161Z,16.40
2018-09-30T10:54:21.554Z,15.90
2018-09-30T10:56:49.995Z,16.10
2018-09-30T10:59:18.275Z,16.40
2018-09-30T11:01:46.612Z,16.90
2018-09-30T11:04:15.001Z,17.20
2018-09-30T11:06:43.353Z,17.60
2018-09-30T11:09:11.689Z,18.20
2018-09-30T11:11:40.123Z,18.60
2018-09-30T11:14:08.453Z,18.80
2018-09-30T11:16:36.767Z,18.90
2018-09-30T11:19:05.189Z,18.90
2018-09-30T11:21:33.565Z,19.40
2018-09-30T11:24:01.892Z,19.60
2018-09-30T11:26:30.224Z,19.80
2018-09-30T11:28:58.611Z,20.10
2018-09-30T11:31:26.985Z,19.70
2018-09-30T11:33:55.361Z,19.80
2018-09-30T11:36:23.698Z,20.00
2018-09-30T11:38:52.064Z,20.70
2018-09-30T11:41:20.448Z,21.00
2018-09-30T11:43:48.788Z,21.40
2018-09-30T11:46:17.137Z,20.90
2018-09-30T11:48:45.488Z,19.80
2018-09-30T11:51:13.858Z,20.30
2018-09-30T11:53:42.193Z,20.00
2018-09-30T11:56:10.543Z,20.00
2018-09-30T11:58:38.948Z,20.60
2018-09-30T12:01:07.400Z,20.80
2018-09-30T12:03:35.659Z,20.70
2018-09-30T12:06:03.984Z,20.80
2018-09-30T12:08:32.396Z,21.20
2018-09-30T12:11:01.496Z,21.00
2018-09-30T12:13:29.827Z,21.10
2018-09-30T12:15:58.160Z,21.40
2018-09-30T12:18:26.603Z,21.40
2018-09-30T12:20:54.950Z,21.50
2018-09-30T12:23:23.289Z,20.90
2018-09-30T12:25:51.659Z,21.20
2018-09-30T12:28:19.963Z,21.50
2018-09-30T12:30:48.396Z,21.70
2018-09-30T12:33:16.818Z,22.20
2018-09-30T12:35:45.194Z,22.40
2018-09-30T12:38:23.849Z,22.60
2018-09-30T12:40:53.545Z,22.30
2018-09-30T12:43:21.938Z,21.90
2018-09-30T12:45:50.276Z,22.40
2018-09-30T12:48:18.629Z,22.20
2018-09-30T12:50:47.036Z,21.80
2018-09-30T12:53:15.317Z,21.90
2018-09-30T12:55:43.705Z,22.20
2018-09-30T12:58:12.066Z,22.20
2018-09-30T13:00:40.413Z,22.10
2018-09-30T13:03:08.717Z,22.70
2018-09-30T13:05:37.068Z,23.10
2018-09-30T13:08:05.504Z,22.70
2018-09-30T13:10:33.858Z,22.90
2018-09-30T13:13:02.288Z,23.30
2018-09-30T13:15:30.646Z,23.10
2018-09-30T13:17:59.040Z,23.50
2018-09-30T13:20:27.373Z,23.70
2018-09-30T13:22:55.738Z,24.00
2018-09-30T13:25:24.061Z,24.20
2018-09-30T13:27:52.411Z,23.50
2018-09-30T13:30:20.815Z,23.20
2018-09-30T13:32:49.188Z,23.90
2018-09-30T13:35:17.585Z,23.20
2018-09-30T13:37:45.917Z,22.90
2018-09-30T13:40:14.363Z,23.70
2018-09-30T13:42:42.605Z,24.10
2018-09-30T13:45:11.048Z,23.80
2018-09-30T13:47:39.399Z,23.30
2018-09-30T13:50:07.781Z,23.00
2018-09-30T13:52:36.200Z,23.10
2018-09-30T13:55:04.599Z,23.50
2018-09-30T13:57:33.020Z,23.20
2018-09-30T14:00:01.368Z,22.90
2018-09-30T14:02:29.767Z,22.90
2018-09-30T14:04:58.132Z,23.20
2018-09-30T14:07:26.505Z,23.60
2018-09-30T14:09:54.853Z,24.20
2018-09-30T14:12:23.268Z,24.50
2018-09-30T14:14:51.608Z,24.70
2018-09-30T14:17:19.980Z,24.90
2018-09-30T14:19:48.319Z,24.70
2018-09-30T14:22:16.676Z,24.60
2018-09-30T14:24:45.005Z,24.30
2018-09-30T14:27:13.368Z,24.20
2018-09-30T14:29:41.699Z,24.60
2018-09-30T14:32:10.053Z,24.80
2018-09-30T14:34:38.571Z,25.40
2018-09-30T14:37:06.969Z,25.00
2018-09-30T14:39:35.337Z,24.30
2018-09-30T14:42:03.713Z,24.40
2018-09-30T14:44:32.041Z,24.70
2018-09-30T14:47:00.361Z,25.00
2018-09-30T14:49:28.704Z,25.20
2018-09-30T14:51:57.071Z,25.60
2018-09-30T14:54:25.460Z,25.00
2018-09-30T14:56:53.743Z,25.30
2018-09-30T14:59:22.134Z,25.40
2018-09-30T15:01:50.507Z,25.20
2018-09-30T15:04:18.848Z,24.80
2018-09-30T15:06:47.172Z,24.70
2018-09-30T15:09:15.543Z,24.20
2018-09-30T15:11:43.929Z,24.50
2018-09-30T15:14:12.493Z,24.40
2018-09-30T15:16:40.943Z,24.20
2018-09-30T15:19:09.294Z,23.80
2018-09-30T15:21:37.669Z,23.30
2018-09-30T15:24:05.984Z,22.90
2018-09-30T15:26:34.429Z,22.50
2018-09-30T15:29:02.813Z,22.10
2018-09-30T15:31:31.172Z,22.10
2018-09-30T15:33:59.541Z,22.00
2018-09-30T15:36:27.937Z,22.00
2018-09-30T15:38:56.288Z,21.70
2018-09-30T15:41:24.676Z,21.40
2018-09-30T15:43:53.058Z,21.50
2018-09-30T15:46:21.403Z,21.50
2018-09-30T15:48:49.812Z,21.20
2018-09-30T15:51:18.166Z,21.10
2018-09-30T15:53:46.622Z,21.10
2018-09-30T15:56:15.032Z,21.10
2018-09-30T15:58:43.376Z,20.80
2018-09-30T16:01:11.812Z,20.70
2018-09-30T16:03:40.273Z,20.60
2018-09-30T16:06:08.668Z,20.50
2018-09-30T16:08:37.028Z,20.50
2018-09-30T16:11:05.591Z,20.60
2018-09-30T16:13:33.947Z,20.40
2018-09-30T16:16:02.325Z,20.40
2018-09-30T16:18:30.657Z,20.30
2018-09-30T16:20:59.084Z,20.30
2018-09-30T16:23:27.432Z,20.30
2018-09-30T16:25:55.769Z,20.30
2018-09-30T16:28:24.134Z,20.20
2018-09-30T16:30:52.993Z,19.90
2018-09-30T16:33:21.372Z,19.80
2018-09-30T16:35:49.756Z,19.80
2018-09-30T16:38:18.151Z,19.60
2018-09-30T16:40:46.504Z,19.50
2018-09-30T16:43:14.882Z,19.50
2018-09-30T16:45:43.209Z,19.40
2018-09-30T16:48:11.669Z,19.30
2018-09-30T16:50:40.098Z,19.40
2018-09-30T16:53:08.398Z,19.20
2018-09-30T16:55:36.794Z,19.00
2018-09-30T16:58:05.430Z,18.80
2018-09-30T17:00:33.895Z,18.70
2018-09-30T17:03:02.280Z,18.50
2018-09-30T17:05:30.730Z,18.30
2018-09-30T17:07:59.119Z,18.20
2018-09-30T17:10:27.539Z,18.00
2018-09-30T17:12:56.066Z,17.90
2018-09-30T17:15:24.659Z,17.80
2018-09-30T17:17:53.020Z,17.70
2018-09-30T17:20:21.436Z,17.50
2018-09-30T17:22:49.788Z,17.40
2018-09-30T17:25:18.156Z,17.30
2018-09-30T17:27:46.548Z,17.20
2018-09-30T17:30:14.910Z,17.10
2018-09-30T17:32:43.316Z,17.00
2018-09-30T17:35:11.748Z,16.90
2018-09-30T17:37:40.153Z,16.80
2018-09-30T17:40:08.541Z,16.70
2018-09-30T17:42:36.880Z,16.70
2018-09-30T17:45:05.856Z,16.50
2018-09-30T17:47:34.200Z,16.50
2018-09-30T17:50:02.576Z,16.50
2018-09-30T17:52:30.990Z,16.50
2018-09-30T17:54:59.375Z,16.30
2018-09-30T17:57:27.752Z,16.20
2018-09-30T17:59:56.181Z,16.10
2018-09-30T18:02:24.603Z,16.00
2018-09-30T18:04:52.984Z,15.90
2018-09-30T18:07:21.581Z,15.80
2018-09-30T18:09:52.320Z,15.70
2018-09-30T18:12:21.546Z,15.60
2018-09-30T18:14:51.592Z,15.60
2018-09-30T18:17:21.204Z,15.60
2018-09-30T18:19:51.650Z,15.40
2018-09-30T18:22:21.819Z,15.40
2018-09-30T18:24:51.503Z,15.30
2018-09-30T18:27:21.497Z,15.30
2018-09-30T18:29:51.988Z,15.20
2018-09-30T18:32:21.877Z,15.20
2018-09-30T18:34:51.613Z,15.10
2018-09-30T18:37:22.520Z,15.00
2018-09-30T18:39:51.827Z,14.90
2018-09-30T18:42:21.816Z,14.80
2018-09-30T18:44:52.108Z,14.80
2018-09-30T18:47:29.782Z,14.80
2018-09-30T18:50:00.658Z,14.70
2018-09-30T18:52:31.620Z,14.70
2018-09-30T18:55:02.311Z,14.60
2018-09-30T18:57:32.478Z,14.60
2018-09-30T19:00:02.585Z,14.50
2018-09-30T19:02:31.879Z,14.40
2018-09-30T19:05:01.537Z,14.40
2018-09-30T19:07:31.529Z,14.30
2018-09-30T19:10:01.327Z,14.20
2018-09-30T19:12:31.195Z,14.00
2018-09-30T19:15:01.158Z,14.00
2018-09-30T19:17:31.173Z,14.00
2018-09-30T19:20:01.029Z,13.90
2018-09-30T19:22:31.103Z,13.90
2018-09-30T19:25:00.934Z,13.80
2018-09-30T19:27:30.636Z,13.80
2018-09-30T19:30:00.223Z,13.70
2018-09-30T19:32:29.704Z,13.60
2018-09-30T19:34:58.959Z,13.50
2018-09-30T19:37:27.827Z,13.40
2018-09-30T19:39:56.344Z,13.40
2018-09-30T19:42:24.796Z,13.40
2018-09-30T19:44:53.175Z,13.40
2018-09-30T19:47:21.977Z,13.30
2018-09-30T19:49:51.477Z,13.30
2018-09-30T19:52:21.267Z,13.20
2018-09-30T19:54:51.147Z,13.10
2018-09-30T19:57:20.947Z,13.10
2018-09-30T19:59:50.749Z,13.00
2018-09-30T20:02:19.557Z,12.90
2018-09-30T20:04:48.151Z,13.00
2018-09-30T20:07:16.627Z,12.90
2018-09-30T20:09:44.982Z,12.90
2018-09-30T20:12:13.333Z,12.80
2018-09-30T20:14:41.920Z,12.80
2018-09-30T20:17:10.762Z,12.80
2018-09-30T20:19:39.464Z,12.70
2018-09-30T20:22:09.195Z,12.70
2018-09-30T20:24:37.637Z,12.60
2018-09-30T20:27:06.108Z,12.60
2018-09-30T20:29:34.960Z,12.50
2018-09-30T20:32:03.339Z,12.40
2018-09-30T20:34:31.909Z,12.40
2018-09-30T20:37:01.183Z,12.40
2018-09-30T20:39:30.051Z,12.30
2018-09-30T20:41:58.544Z,12.30
2018-09-30T20:44:27.597Z,12.20
2018-09-30T20:46:55.975Z,12.20
2018-09-30T20:49:24.339Z,12.20
2018-09-30T20:51:52.726Z,12.10
2018-09-30T20:54:21.108Z,12.10
2018-09-30T20:56:49.489Z,12.00
2018-09-30T20:59:17.856Z,12.00
2018-09-30T21:01:46.246Z,11.90
2018-09-30T21:04:14.629Z,11.90
2018-09-30T21:06:44.118Z,11.90
2018-09-30T21:09:14.483Z,11.80
2018-09-30T21:11:42.861Z,11.80
2018-09-30T21:14:11.252Z,11.80
2018-09-30T21:16:39.631Z,11.70
2018-09-30T21:19:08.050Z,11.60
2018-09-30T21:21:38.506Z,11.60
2018-09-30T21:24:07.919Z,11.50
2018-09-30T21:26:36.607Z,11.50
2018-09-30T21:29:05.677Z,11.50
2018-09-30T21:31:34.304Z,11.50
2018-09-30T21:34:02.701Z,11.50
2018-09-30T21:36:31.503Z,11.50
2018-09-30T21:38:59.880Z,11.50
2018-09-30T21:41:28.653Z,11.50
2018-09-30T21:43:58.038Z,11.50
2018-09-30T21:46:26.625Z,11.50
2018-09-30T21:48:55.147Z,11.40
2018-09-30T21:51:23.551Z,11.40
2018-09-30T21:53:51.880Z,11.40
2018-09-30T21:56:20.432Z,11.40
2018-09-30T21:58:48.978Z,11.40
2018-09-30T22:01:17.465Z,11.40
2018-09-30T22:03:46.078Z,11.40
2018-09-30T22:06:14.725Z,11.40
2018-09-30T22:08:43.062Z,11.30
2018-09-30T22:11:11.411Z,11.30
2018-09-30T22:13:39.845Z,11.20
2018-09-30T22:16:08.259Z,11.20
2018-09-30T22:18:36.916Z,11.20
2018-09-30T22:21:05.505Z,11.20
2018-09-30T22:23:33.960Z,11.20
2018-09-30T22:26:02.936Z,11.10
2018-09-30T22:28:31.322Z,11.00
2018-09-30T22:30:59.732Z,11.00
2018-09-30T22:33:28.491Z,10.90
2018-09-30T22:35:57.219Z,10.90
2018-09-30T22:38:25.561Z,11.00
2018-09-30T22:40:53.928Z,11.00
2018-09-30T22:43:22.289Z,11.10
2018-09-30T22:45:50.605Z,11.20
2018-09-30T22:48:18.972Z,11.20
2018-09-30T22:50:47.353Z,11.30
2018-09-30T22:53:15.703Z,11.30
2018-09-30T22:55:44.015Z,11.30
2018-09-30T22:58:12.364Z,11.40
2018-09-30T23:00:40.700Z,11.40
2018-09-30T23:03:09.084Z,11.50
2018-09-30T23:05:37.447Z,11.50
2018-09-30T23:08:05.806Z,11.60
2018-09-30T23:10:34.116Z,11.60
2018-09-30T23:13:02.451Z,11.70
2018-09-30T23:15:30.776Z,11.60
2018-09-30T23:17:59.099Z,11.60
2018-09-30T23:20:27.445Z,11.60
2018-09-30T23:22:55.868Z,11.60
2018-09-30T23:25:24.265Z,11.60
2018-09-30T23:27:52.652Z,11.60
2018-09-30T23:30:21.010Z,11.50
2018-09-30T23:32:49.360Z,11.50
2018-09-30T23:35:17.721Z,11.40
2018-09-30T23:37:46.075Z,11.40
2018-09-30T23:40:14.403Z,11.40
2018-09-30T23:42:42.716Z,11.40
2018-09-30T23:45:11.171Z,11.40
2018-09-30T23:47:39.496Z,11.40
2018-09-30T23:50:07.849Z,11.30
2018-09-30T23:52:36.156Z,11.20
2018-09-30T23:55:04.549Z,11.20
2018-09-30T23:57:32.859Z,11.10
